sensor_id;sensor_type;location;lat;lon;timestamp;temperature;humidity
40960;DHT22;27842;52.272;8.052;2022-08-24T00:00:50;25.30;59.40
40960;DHT22;27842;52.272;8.052;2022-08-24T00:03:16;25.30;59.60
40960;DHT22;27842;52.272;8.052;2022-08-24T00:05:41;25.20;59.50
40960;DHT22;27842;52.272;8.052;2022-08-24T00:08:07;25.20;59.70
40960;DHT22;27842;52.272;8.052;2022-08-24T00:10:32;25.20;59.70
40960;DHT22;27842;52.272;8.052;2022-08-24T00:12:58;25.20;59.60
40960;DHT22;27842;52.272;8.052;2022-08-24T00:15:23;25.10;59.60
40960;DHT22;27842;52.272;8.052;2022-08-24T00:17:49;25.10;59.30
40960;DHT22;27842;52.272;8.052;2022-08-24T00:20:15;25.00;59.60
40960;DHT22;27842;52.272;8.052;2022-08-24T00:22:40;25.10;59.60
40960;DHT22;27842;52.272;8.052;2022-08-24T00:25:06;25.10;59.50
40960;DHT22;27842;52.272;8.052;2022-08-24T00:27:32;25.10;59.50
40960;DHT22;27842;52.272;8.052;2022-08-24T00:29:57;25.10;60.10
40960;DHT22;27842;52.272;8.052;2022-08-24T00:32:23;25.00;59.40
40960;DHT22;27842;52.272;8.052;2022-08-24T00:34:48;25.00;59.40
40960;DHT22;27842;52.272;8.052;2022-08-24T00:37:14;25.00;59.50
40960;DHT22;27842;52.272;8.052;2022-08-24T00:39:39;25.00;59.30
40960;DHT22;27842;52.272;8.052;2022-08-24T00:42:05;24.90;59.50
40960;DHT22;27842;52.272;8.052;2022-08-24T00:44:30;24.90;59.60
40960;DHT22;27842;52.272;8.052;2022-08-24T00:47:10;24.90;59.60
40960;DHT22;27842;52.272;8.052;2022-08-24T00:49:39;24.90;59.70
40960;DHT22;27842;52.272;8.052;2022-08-24T00:52:17;24.80;59.70
40960;DHT22;27842;52.272;8.052;2022-08-24T00:54:48;24.80;59.80
40960;DHT22;27842;52.272;8.052;2022-08-24T00:57:15;24.70;59.80
40960;DHT22;27842;52.272;8.052;2022-08-24T00:59:46;24.70;59.80
40960;DHT22;27842;52.272;8.052;2022-08-24T01:02:13;24.70;59.70
40960;DHT22;27842;52.272;8.052;2022-08-24T01:04:47;24.60;59.70
40960;DHT22;27842;52.272;8.052;2022-08-24T01:07:14;24.70;59.70
40960;DHT22;27842;52.272;8.052;2022-08-24T01:09:40;24.60;59.70
40960;DHT22;27842;52.272;8.052;2022-08-24T01:12:05;24.60;59.70
40960;DHT22;27842;52.272;8.052;2022-08-24T01:14:31;24.60;59.60
40960;DHT22;27842;52.272;8.052;2022-08-24T01:16:56;24.60;59.60
40960;DHT22;27842;52.272;8.052;2022-08-24T01:19:41;24.50;59.70
40960;DHT22;27842;52.272;8.052;2022-08-24T01:24:36;24.50;59.80
40960;DHT22;27842;52.272;8.052;2022-08-24T01:27:02;24.50;59.90
40960;DHT22;27842;52.272;8.052;2022-08-24T01:29:27;24.40;59.80
40960;DHT22;27842;52.272;8.052;2022-08-24T01:31:55;24.40;59.80
40960;DHT22;27842;52.272;8.052;2022-08-24T01:34:21;24.40;59.90
40960;DHT22;27842;52.272;8.052;2022-08-24T01:36:48;24.40;59.90
40960;DHT22;27842;52.272;8.052;2022-08-24T01:39:18;24.40;60.00
40960;DHT22;27842;52.272;8.052;2022-08-24T01:41:45;24.30;59.90
40960;DHT22;27842;52.272;8.052;2022-08-24T01:44:11;24.30;60.00
40960;DHT22;27842;52.272;8.052;2022-08-24T01:46:41;24.30;60.10
40960;DHT22;27842;52.272;8.052;2022-08-24T01:49:07;24.20;60.20
40960;DHT22;27842;52.272;8.052;2022-08-24T01:51:32;24.30;60.10
40960;DHT22;27842;52.272;8.052;2022-08-24T01:53:58;24.20;60.00
40960;DHT22;27842;52.272;8.052;2022-08-24T01:56:27;24.20;60.00
40960;DHT22;27842;52.272;8.052;2022-08-24T01:58:53;24.20;60.10
40960;DHT22;27842;52.272;8.052;2022-08-24T02:01:18;24.10;60.10
40960;DHT22;27842;52.272;8.052;2022-08-24T02:03:44;24.10;60.20
40960;DHT22;27842;52.272;8.052;2022-08-24T02:06:09;24.00;60.30
40960;DHT22;27842;52.272;8.052;2022-08-24T02:08:35;24.00;60.40
40960;DHT22;27842;52.272;8.052;2022-08-24T02:11:10;24.00;60.50
40960;DHT22;27842;52.272;8.052;2022-08-24T02:13:36;23.90;60.60
40960;DHT22;27842;52.272;8.052;2022-08-24T02:16:02;23.90;60.70
40960;DHT22;27842;52.272;8.052;2022-08-24T02:18:28;23.90;60.80
40960;DHT22;27842;52.272;8.052;2022-08-24T02:20:54;23.90;60.70
40960;DHT22;27842;52.272;8.052;2022-08-24T02:23:19;23.90;60.70
40960;DHT22;27842;52.272;8.052;2022-08-24T02:25:45;23.90;60.80
40960;DHT22;27842;52.272;8.052;2022-08-24T02:28:11;23.90;60.70
40960;DHT22;27842;52.272;8.052;2022-08-24T02:30:36;23.90;60.50
40960;DHT22;27842;52.272;8.052;2022-08-24T02:33:02;23.90;60.70
40960;DHT22;27842;52.272;8.052;2022-08-24T02:35:28;23.90;60.70
40960;DHT22;27842;52.272;8.052;2022-08-24T02:37:54;23.80;60.80
40960;DHT22;27842;52.272;8.052;2022-08-24T02:40:20;23.80;60.90
40960;DHT22;27842;52.272;8.052;2022-08-24T02:42:46;23.70;60.80
40960;DHT22;27842;52.272;8.052;2022-08-24T02:45:12;23.70;60.90
40960;DHT22;27842;52.272;8.052;2022-08-24T02:47:37;23.70;60.90
40960;DHT22;27842;52.272;8.052;2022-08-24T02:50:04;23.60;61.00
40960;DHT22;27842;52.272;8.052;2022-08-24T02:52:30;23.60;61.20
40960;DHT22;27842;52.272;8.052;2022-08-24T02:54:55;23.60;61.30
40960;DHT22;27842;52.272;8.052;2022-08-24T02:57:21;23.60;61.30
40960;DHT22;27842;52.272;8.052;2022-08-24T02:59:46;23.60;61.40
40960;DHT22;27842;52.272;8.052;2022-08-24T03:02:11;23.60;61.30
40960;DHT22;27842;52.272;8.052;2022-08-24T03:04:37;23.60;61.30
40960;DHT22;27842;52.272;8.052;2022-08-24T03:07:03;23.60;61.30
40960;DHT22;27842;52.272;8.052;2022-08-24T03:09:28;23.60;61.30
40960;DHT22;27842;52.272;8.052;2022-08-24T03:11:54;23.50;61.30
40960;DHT22;27842;52.272;8.052;2022-08-24T03:14:20;23.50;61.40
40960;DHT22;27842;52.272;8.052;2022-08-24T03:16:45;23.50;61.50
40960;DHT22;27842;52.272;8.052;2022-08-24T03:19:11;23.50;61.50
40960;DHT22;27842;52.272;8.052;2022-08-24T03:21:37;23.40;61.60
40960;DHT22;27842;52.272;8.052;2022-08-24T03:24:02;23.40;61.50
40960;DHT22;27842;52.272;8.052;2022-08-24T03:26:28;23.40;61.60
40960;DHT22;27842;52.272;8.052;2022-08-24T03:28:53;23.40;61.80
40960;DHT22;27842;52.272;8.052;2022-08-24T03:31:19;23.40;61.80
40960;DHT22;27842;52.272;8.052;2022-08-24T03:33:44;23.30;61.80
40960;DHT22;27842;52.272;8.052;2022-08-24T03:36:10;23.30;61.90
40960;DHT22;27842;52.272;8.052;2022-08-24T03:38:36;23.20;62.10
40960;DHT22;27842;52.272;8.052;2022-08-24T03:41:01;23.20;62.10
40960;DHT22;27842;52.272;8.052;2022-08-24T03:43:27;23.20;62.20
40960;DHT22;27842;52.272;8.052;2022-08-24T03:46:11;23.10;62.30
40960;DHT22;27842;52.272;8.052;2022-08-24T03:48:37;23.10;62.30
40960;DHT22;27842;52.272;8.052;2022-08-24T03:51:04;23.10;62.30
40960;DHT22;27842;52.272;8.052;2022-08-24T03:53:30;23.10;62.30
40960;DHT22;27842;52.272;8.052;2022-08-24T03:55:55;23.10;62.30
40960;DHT22;27842;52.272;8.052;2022-08-24T03:58:21;23.10;62.40
40960;DHT22;27842;52.272;8.052;2022-08-24T04:00:46;23.10;62.50
40960;DHT22;27842;52.272;8.052;2022-08-24T04:03:12;23.10;62.50
40960;DHT22;27842;52.272;8.052;2022-08-24T04:05:38;23.10;62.40
40960;DHT22;27842;52.272;8.052;2022-08-24T04:08:04;23.10;62.50
40960;DHT22;27842;52.272;8.052;2022-08-24T04:10:30;23.10;62.50
40960;DHT22;27842;52.272;8.052;2022-08-24T04:12:56;23.00;62.60
40960;DHT22;27842;52.272;8.052;2022-08-24T04:15:21;23.10;62.60
40960;DHT22;27842;52.272;8.052;2022-08-24T04:17:49;23.00;62.60
40960;DHT22;27842;52.272;8.052;2022-08-24T04:20:14;23.00;62.70
40960;DHT22;27842;52.272;8.052;2022-08-24T04:22:40;22.90;63.00
40960;DHT22;27842;52.272;8.052;2022-08-24T04:25:06;23.00;63.00
40960;DHT22;27842;52.272;8.052;2022-08-24T04:27:32;22.90;63.00
40960;DHT22;27842;52.272;8.052;2022-08-24T04:29:57;22.90;63.00
40960;DHT22;27842;52.272;8.052;2022-08-24T04:32:22;22.90;63.20
40960;DHT22;27842;52.272;8.052;2022-08-24T04:34:48;22.80;63.80
40960;DHT22;27842;52.272;8.052;2022-08-24T04:37:13;22.80;63.20
40960;DHT22;27842;52.272;8.052;2022-08-24T04:39:39;22.80;63.30
40960;DHT22;27842;52.272;8.052;2022-08-24T04:42:06;22.80;63.70
40960;DHT22;27842;52.272;8.052;2022-08-24T04:44:32;22.70;63.80
40960;DHT22;27842;52.272;8.052;2022-08-24T04:46:57;22.70;63.50
40960;DHT22;27842;52.272;8.052;2022-08-24T04:49:23;22.70;63.80
40960;DHT22;27842;52.272;8.052;2022-08-24T04:51:49;22.70;63.70
40960;DHT22;27842;52.272;8.052;2022-08-24T04:54:14;22.60;63.60
40960;DHT22;27842;52.272;8.052;2022-08-24T04:56:40;22.60;63.70
40960;DHT22;27842;52.272;8.052;2022-08-24T04:59:05;22.60;63.70
40960;DHT22;27842;52.272;8.052;2022-08-24T05:01:31;22.60;63.90
40960;DHT22;27842;52.272;8.052;2022-08-24T05:03:57;22.60;63.90
40960;DHT22;27842;52.272;8.052;2022-08-24T05:06:23;22.70;63.90
40960;DHT22;27842;52.272;8.052;2022-08-24T05:08:49;22.60;63.90
40960;DHT22;27842;52.272;8.052;2022-08-24T05:11:16;22.60;63.90
40960;DHT22;27842;52.272;8.052;2022-08-24T05:13:42;22.70;63.90
40960;DHT22;27842;52.272;8.052;2022-08-24T05:16:08;22.70;63.90
40960;DHT22;27842;52.272;8.052;2022-08-24T05:18:34;22.70;63.90
40960;DHT22;27842;52.272;8.052;2022-08-24T05:21:00;22.70;64.20
40960;DHT22;27842;52.272;8.052;2022-08-24T05:23:25;22.70;63.90
40960;DHT22;27842;52.272;8.052;2022-08-24T05:25:51;22.70;63.90
40960;DHT22;27842;52.272;8.052;2022-08-24T05:28:17;22.70;63.90
40960;DHT22;27842;52.272;8.052;2022-08-24T05:30:42;22.70;64.00
40960;DHT22;27842;52.272;8.052;2022-08-24T05:33:08;22.70;64.00
40960;DHT22;27842;52.272;8.052;2022-08-24T05:35:39;22.70;64.00
40960;DHT22;27842;52.272;8.052;2022-08-24T05:38:05;22.70;64.10
40960;DHT22;27842;52.272;8.052;2022-08-24T05:40:30;22.70;64.20
40960;DHT22;27842;52.272;8.052;2022-08-24T05:42:56;22.70;64.10
40960;DHT22;27842;52.272;8.052;2022-08-24T05:45:22;22.70;64.10
40960;DHT22;27842;52.272;8.052;2022-08-24T05:47:47;22.70;64.10
40960;DHT22;27842;52.272;8.052;2022-08-24T05:50:13;22.70;64.10
40960;DHT22;27842;52.272;8.052;2022-08-24T05:52:38;22.70;64.10
40960;DHT22;27842;52.272;8.052;2022-08-24T05:55:04;22.80;64.20
40960;DHT22;27842;52.272;8.052;2022-08-24T05:57:31;22.70;64.40
40960;DHT22;27842;52.272;8.052;2022-08-24T05:59:57;22.80;64.20
40960;DHT22;27842;52.272;8.052;2022-08-24T06:02:22;22.80;64.30
40960;DHT22;27842;52.272;8.052;2022-08-24T06:04:48;22.80;64.50
40960;DHT22;27842;52.272;8.052;2022-08-24T06:07:14;22.80;64.40
40960;DHT22;27842;52.272;8.052;2022-08-24T06:09:40;22.80;64.40
40960;DHT22;27842;52.272;8.052;2022-08-24T06:12:06;22.80;64.50
40960;DHT22;27842;52.272;8.052;2022-08-24T06:14:32;22.80;64.90
40960;DHT22;27842;52.272;8.052;2022-08-24T06:16:58;22.80;64.50
40960;DHT22;27842;52.272;8.052;2022-08-24T06:19:24;22.80;64.60
40960;DHT22;27842;52.272;8.052;2022-08-24T06:21:51;22.80;64.70
40960;DHT22;27842;52.272;8.052;2022-08-24T06:24:18;22.80;64.80
40960;DHT22;27842;52.272;8.052;2022-08-24T06:27:04;22.80;64.80
40960;DHT22;27842;52.272;8.052;2022-08-24T06:29:45;22.80;64.70
40960;DHT22;27842;52.272;8.052;2022-08-24T06:32:11;22.90;64.70
40960;DHT22;27842;52.272;8.052;2022-08-24T06:34:36;22.90;64.70
40960;DHT22;27842;52.272;8.052;2022-08-24T06:37:04;22.90;64.70
40960;DHT22;27842;52.272;8.052;2022-08-24T06:39:29;23.00;64.90
40960;DHT22;27842;52.272;8.052;2022-08-24T06:41:55;23.00;64.70
40960;DHT22;27842;52.272;8.052;2022-08-24T06:44:20;23.00;65.90
40960;DHT22;27842;52.272;8.052;2022-08-24T06:46:46;23.10;64.80
40960;DHT22;27842;52.272;8.052;2022-08-24T06:49:11;23.10;64.90
40960;DHT22;27842;52.272;8.052;2022-08-24T06:51:36;23.10;65.00
40960;DHT22;27842;52.272;8.052;2022-08-24T06:54:02;23.10;65.60
40960;DHT22;27842;52.272;8.052;2022-08-24T06:56:28;23.20;64.70
40960;DHT22;27842;52.272;8.052;2022-08-24T06:58:53;23.30;64.90
40960;DHT22;27842;52.272;8.052;2022-08-24T07:01:20;23.40;64.90
40960;DHT22;27842;52.272;8.052;2022-08-24T07:03:48;23.40;66.00
40960;DHT22;27842;52.272;8.052;2022-08-24T07:06:14;23.50;64.30
40960;DHT22;27842;52.272;8.052;2022-08-24T07:08:40;23.70;64.20
40960;DHT22;27842;52.272;8.052;2022-08-24T07:11:08;23.80;64.50
40960;DHT22;27842;52.272;8.052;2022-08-24T07:13:34;23.90;64.50
40960;DHT22;27842;52.272;8.052;2022-08-24T07:16:00;24.00;63.90
40960;DHT22;27842;52.272;8.052;2022-08-24T07:18:25;24.10;64.80
40960;DHT22;27842;52.272;8.052;2022-08-24T07:20:51;24.10;63.70
40960;DHT22;27842;52.272;8.052;2022-08-24T07:23:17;24.30;63.80
40960;DHT22;27842;52.272;8.052;2022-08-24T07:25:46;24.30;63.60
40960;DHT22;27842;52.272;8.052;2022-08-24T07:28:11;24.40;63.90
40960;DHT22;27842;52.272;8.052;2022-08-24T07:30:37;24.40;64.60
40960;DHT22;27842;52.272;8.052;2022-08-24T07:33:03;24.50;64.70
40960;DHT22;27842;52.272;8.052;2022-08-24T07:35:29;24.50;63.50
40960;DHT22;27842;52.272;8.052;2022-08-24T07:37:56;24.60;63.40
40960;DHT22;27842;52.272;8.052;2022-08-24T07:40:22;24.70;63.20
40960;DHT22;27842;52.272;8.052;2022-08-24T07:42:49;24.70;63.40
40960;DHT22;27842;52.272;8.052;2022-08-24T07:45:14;24.80;63.20
40960;DHT22;27842;52.272;8.052;2022-08-24T07:47:40;24.90;63.10
40960;DHT22;27842;52.272;8.052;2022-08-24T07:50:06;24.90;64.30
40960;DHT22;27842;52.272;8.052;2022-08-24T07:52:32;25.00;63.40
40960;DHT22;27842;52.272;8.052;2022-08-24T07:54:58;25.00;63.10
40960;DHT22;27842;52.272;8.052;2022-08-24T07:57:23;25.10;62.80
40960;DHT22;27842;52.272;8.052;2022-08-24T07:59:49;25.10;64.20
40960;DHT22;27842;52.272;8.052;2022-08-24T08:02:14;25.20;63.30
40960;DHT22;27842;52.272;8.052;2022-08-24T08:04:41;25.30;63.10
40960;DHT22;27842;52.272;8.052;2022-08-24T08:07:07;25.40;65.00
40960;DHT22;27842;52.272;8.052;2022-08-24T08:09:35;25.40;62.50
40960;DHT22;27842;52.272;8.052;2022-08-24T08:12:01;25.50;62.30
40960;DHT22;27842;52.272;8.052;2022-08-24T08:14:26;25.60;62.20
40960;DHT22;27842;52.272;8.052;2022-08-24T08:16:52;25.70;62.20
40960;DHT22;27842;52.272;8.052;2022-08-24T08:19:17;25.80;62.80
40960;DHT22;27842;52.272;8.052;2022-08-24T08:21:47;25.90;62.20
40960;DHT22;27842;52.272;8.052;2022-08-24T08:24:32;25.90;61.90
40960;DHT22;27842;52.272;8.052;2022-08-24T08:26:57;26.10;62.00
40960;DHT22;27842;52.272;8.052;2022-08-24T08:29:23;26.10;62.00
40960;DHT22;27842;52.272;8.052;2022-08-24T08:31:49;26.20;62.10
40960;DHT22;27842;52.272;8.052;2022-08-24T08:34:16;26.30;61.30
40960;DHT22;27842;52.272;8.052;2022-08-24T08:36:42;26.30;61.90
40960;DHT22;27842;52.272;8.052;2022-08-24T08:39:09;26.40;61.70
40960;DHT22;27842;52.272;8.052;2022-08-24T08:44:02;26.50;61.50
40960;DHT22;27842;52.272;8.052;2022-08-24T08:46:36;26.60;61.10
40960;DHT22;27842;52.272;8.052;2022-08-24T08:54:32;27.00;60.30
40960;DHT22;27842;52.272;8.052;2022-08-24T08:57:11;27.10;59.80
40960;DHT22;27842;52.272;8.052;2022-08-24T09:02:44;27.40;59.60
40960;DHT22;27842;52.272;8.052;2022-08-24T09:15:47;27.90;59.30
40960;DHT22;27842;52.272;8.052;2022-08-24T09:23:15;28.20;57.80
40960;DHT22;27842;52.272;8.052;2022-08-24T09:28:26;28.40;59.10
40960;DHT22;27842;52.272;8.052;2022-08-24T09:37:01;28.50;57.90
40960;DHT22;27842;52.272;8.052;2022-08-24T09:47:15;28.90;58.60
40960;DHT22;27842;52.272;8.052;2022-08-24T10:00:07;29.20;57.80
40960;DHT22;27842;52.272;8.052;2022-08-24T10:03:33;29.20;56.60
40960;DHT22;27842;52.272;8.052;2022-08-24T10:08:16;29.40;57.80
40960;DHT22;27842;52.272;8.052;2022-08-24T10:11:05;29.40;55.70
40960;DHT22;27842;52.272;8.052;2022-08-24T10:16:36;29.60;56.20
40960;DHT22;27842;52.272;8.052;2022-08-24T10:21:48;29.70;57.30
40960;DHT22;27842;52.272;8.052;2022-08-24T10:24:31;29.70;57.30
40960;DHT22;27842;52.272;8.052;2022-08-24T10:27:07;29.70;56.60
40960;DHT22;27842;52.272;8.052;2022-08-24T10:29:47;29.70;57.40
40960;DHT22;27842;52.272;8.052;2022-08-24T10:35:04;29.80;55.40
40960;DHT22;27842;52.272;8.052;2022-08-24T10:37:48;29.80;55.70
40960;DHT22;27842;52.272;8.052;2022-08-24T10:54:15;29.90;56.40
40960;DHT22;27842;52.272;8.052;2022-08-24T10:59:24;29.90;56.00
40960;DHT22;27842;52.272;8.052;2022-08-24T11:02:06;30.00;55.10
40960;DHT22;27842;52.272;8.052;2022-08-24T11:04:32;30.00;56.80
40960;DHT22;27842;52.272;8.052;2022-08-24T11:09:42;30.20;56.60
40960;DHT22;27842;52.272;8.052;2022-08-24T11:12:16;30.10;56.70
40960;DHT22;27842;52.272;8.052;2022-08-24T11:14:45;30.10;53.50
40960;DHT22;27842;52.272;8.052;2022-08-24T11:17:15;30.10;55.80
40960;DHT22;27842;52.272;8.052;2022-08-24T11:19:41;30.10;55.20
40960;DHT22;27842;52.272;8.052;2022-08-24T11:25:04;30.10;55.90
40960;DHT22;27842;52.272;8.052;2022-08-24T11:27:38;30.10;56.20
40960;DHT22;27842;52.272;8.052;2022-08-24T11:30:06;30.10;56.20
40960;DHT22;27842;52.272;8.052;2022-08-24T11:32:44;30.20;56.30
40960;DHT22;27842;52.272;8.052;2022-08-24T11:37:38;30.20;55.50
40960;DHT22;27842;52.272;8.052;2022-08-24T11:40:05;30.20;55.00
40960;DHT22;27842;52.272;8.052;2022-08-24T11:45:30;30.30;55.50
40960;DHT22;27842;52.272;8.052;2022-08-24T11:50:24;30.40;55.60
40960;DHT22;27842;52.272;8.052;2022-08-24T12:00:41;30.70;54.00
40960;DHT22;27842;52.272;8.052;2022-08-24T12:03:17;30.70;52.10
40960;DHT22;27842;52.272;8.052;2022-08-24T12:05:56;30.90;53.10
40960;DHT22;27842;52.272;8.052;2022-08-24T12:08:33;31.10;53.70
40960;DHT22;27842;52.272;8.052;2022-08-24T12:11:09;31.30;52.80
40960;DHT22;27842;52.272;8.052;2022-08-24T12:13:51;31.40;53.90
40960;DHT22;27842;52.272;8.052;2022-08-24T12:16:28;31.50;54.40
40960;DHT22;27842;52.272;8.052;2022-08-24T12:21:22;31.80;51.90
40960;DHT22;27842;52.272;8.052;2022-08-24T12:23:50;32.00;55.50
40960;DHT22;27842;52.272;8.052;2022-08-24T12:26:27;32.20;54.40
40960;DHT22;27842;52.272;8.052;2022-08-24T12:29:00;32.40;52.80
40960;DHT22;27842;52.272;8.052;2022-08-24T12:34:00;32.80;53.30
40960;DHT22;27842;52.272;8.052;2022-08-24T12:36:40;32.90;53.00
40960;DHT22;27842;52.272;8.052;2022-08-24T12:39:08;33.00;51.00
40960;DHT22;27842;52.272;8.052;2022-08-24T12:41:35;33.20;52.90
40960;DHT22;27842;52.272;8.052;2022-08-24T12:44:06;33.30;53.10
40960;DHT22;27842;52.272;8.052;2022-08-24T12:46:36;33.40;50.60
40960;DHT22;27842;52.272;8.052;2022-08-24T12:49:04;33.60;52.30
40960;DHT22;27842;52.272;8.052;2022-08-24T12:51:38;33.70;52.70
40960;DHT22;27842;52.272;8.052;2022-08-24T13:01:55;34.20;51.00
40960;DHT22;27842;52.272;8.052;2022-08-24T13:07:08;34.30;51.60
40960;DHT22;27842;52.272;8.052;2022-08-24T13:09:38;34.40;48.50
40960;DHT22;27842;52.272;8.052;2022-08-24T13:14:49;34.70;50.90
40960;DHT22;27842;52.272;8.052;2022-08-24T13:17:15;34.90;47.30
40960;DHT22;27842;52.272;8.052;2022-08-24T13:19:43;34.90;47.20
40960;DHT22;27842;52.272;8.052;2022-08-24T13:30:04;34.60;51.40
40960;DHT22;27842;52.272;8.052;2022-08-24T13:32:56;34.60;50.70
40960;DHT22;27842;52.272;8.052;2022-08-24T13:40:46;34.50;49.80
40960;DHT22;27842;52.272;8.052;2022-08-24T13:43:27;34.50;50.50
40960;DHT22;27842;52.272;8.052;2022-08-24T13:46:07;34.50;48.10
40960;DHT22;27842;52.272;8.052;2022-08-24T13:48:45;34.50;50.70
40960;DHT22;27842;52.272;8.052;2022-08-24T13:51:23;34.50;48.70
40960;DHT22;27842;52.272;8.052;2022-08-24T13:53:57;34.60;48.90
40960;DHT22;27842;52.272;8.052;2022-08-24T13:56:32;34.60;50.20
40960;DHT22;27842;52.272;8.052;2022-08-24T13:59:08;34.70;46.70
40960;DHT22;27842;52.272;8.052;2022-08-24T14:09:38;35.00;47.80
40960;DHT22;27842;52.272;8.052;2022-08-24T14:12:35;34.90;48.90
40960;DHT22;27842;52.272;8.052;2022-08-24T14:23:22;34.80;44.90
40960;DHT22;27842;52.272;8.052;2022-08-24T14:25:49;34.70;47.30
40960;DHT22;27842;52.272;8.052;2022-08-24T14:33:54;34.80;48.20
40960;DHT22;27842;52.272;8.052;2022-08-24T14:36:42;34.90;46.90
40960;DHT22;27842;52.272;8.052;2022-08-24T14:39:54;34.80;46.40
40960;DHT22;27842;52.272;8.052;2022-08-24T14:41:57;34.60;47.60
40960;DHT22;27842;52.272;8.052;2022-08-24T14:47:47;34.20;45.50
40960;DHT22;27842;52.272;8.052;2022-08-24T14:50:22;34.20;47.80
40960;DHT22;27842;52.272;8.052;2022-08-24T15:01:10;34.20;48.30
40960;DHT22;27842;52.272;8.052;2022-08-24T15:07:14;34.30;45.60
40960;DHT22;27842;52.272;8.052;2022-08-24T15:09:21;34.30;46.80
40960;DHT22;27842;52.272;8.052;2022-08-24T15:11:47;34.20;45.50
40960;DHT22;27842;52.272;8.052;2022-08-24T15:17:00;33.90;44.50
40960;DHT22;27842;52.272;8.052;2022-08-24T15:19:34;33.80;48.10
40960;DHT22;27842;52.272;8.052;2022-08-24T15:24:50;33.70;47.40
40960;DHT22;27842;52.272;8.052;2022-08-24T15:27:27;33.60;47.30
40960;DHT22;27842;52.272;8.052;2022-08-24T15:30:02;33.50;46.00
40960;DHT22;27842;52.272;8.052;2022-08-24T15:32:48;33.30;46.00
40960;DHT22;27842;52.272;8.052;2022-08-24T15:35:26;33.20;48.00
40960;DHT22;27842;52.272;8.052;2022-08-24T15:37:52;33.10;46.70
40960;DHT22;27842;52.272;8.052;2022-08-24T15:40:25;33.00;47.10
40960;DHT22;27842;52.272;8.052;2022-08-24T15:42:57;32.90;48.00
40960;DHT22;27842;52.272;8.052;2022-08-24T15:45:24;32.80;48.50
40960;DHT22;27842;52.272;8.052;2022-08-24T15:47:50;32.70;48.30
40960;DHT22;27842;52.272;8.052;2022-08-24T15:53:03;32.60;49.40
40960;DHT22;27842;52.272;8.052;2022-08-24T15:55:42;32.70;48.10
40960;DHT22;27842;52.272;8.052;2022-08-24T16:00:37;32.40;47.10
40960;DHT22;27842;52.272;8.052;2022-08-24T16:05:47;32.40;47.90
40960;DHT22;27842;52.272;8.052;2022-08-24T16:08:13;32.30;47.40
40960;DHT22;27842;52.272;8.052;2022-08-24T16:21:15;32.10;48.10
40960;DHT22;27842;52.272;8.052;2022-08-24T16:23:42;32.10;48.70
40960;DHT22;27842;52.272;8.052;2022-08-24T16:26:31;32.00;48.00
40960;DHT22;27842;52.272;8.052;2022-08-24T16:28:54;31.90;47.20
40960;DHT22;27842;52.272;8.052;2022-08-24T16:34:08;31.90;47.60
40960;DHT22;27842;52.272;8.052;2022-08-24T16:36:37;31.90;48.60
40960;DHT22;27842;52.272;8.052;2022-08-24T16:39:02;31.90;48.40
40960;DHT22;27842;52.272;8.052;2022-08-24T16:41:28;31.80;49.10
40960;DHT22;27842;52.272;8.052;2022-08-24T16:43:54;31.90;48.90
40960;DHT22;27842;52.272;8.052;2022-08-24T16:46:20;31.90;49.00
40960;DHT22;27842;52.272;8.052;2022-08-24T16:48:46;31.80;49.20
40960;DHT22;27842;52.272;8.052;2022-08-24T16:51:12;31.80;49.20
40960;DHT22;27842;52.272;8.052;2022-08-24T16:53:37;31.70;48.80
40960;DHT22;27842;52.272;8.052;2022-08-24T16:56:02;31.70;48.30
40960;DHT22;27842;52.272;8.052;2022-08-24T16:58:30;31.70;48.50
40960;DHT22;27842;52.272;8.052;2022-08-24T17:00:57;31.70;47.80
40960;DHT22;27842;52.272;8.052;2022-08-24T17:03:22;31.70;48.30
40960;DHT22;27842;52.272;8.052;2022-08-24T17:05:48;31.70;48.40
40960;DHT22;27842;52.272;8.052;2022-08-24T17:08:13;31.60;48.90
40960;DHT22;27842;52.272;8.052;2022-08-24T17:10:39;31.60;47.40
40960;DHT22;27842;52.272;8.052;2022-08-24T17:13:04;31.60;49.10
40960;DHT22;27842;52.272;8.052;2022-08-24T17:15:30;31.50;49.10
40960;DHT22;27842;52.272;8.052;2022-08-24T17:17:59;31.50;48.40
40960;DHT22;27842;52.272;8.052;2022-08-24T17:20:27;31.50;48.40
40960;DHT22;27842;52.272;8.052;2022-08-24T17:22:52;31.40;48.60
40960;DHT22;27842;52.272;8.052;2022-08-24T17:25:18;31.40;48.90
40960;DHT22;27842;52.272;8.052;2022-08-24T17:27:44;31.40;49.70
40960;DHT22;27842;52.272;8.052;2022-08-24T17:30:09;31.40;49.70
40960;DHT22;27842;52.272;8.052;2022-08-24T17:32:35;31.30;49.70
40960;DHT22;27842;52.272;8.052;2022-08-24T17:35:01;31.30;50.50
40960;DHT22;27842;52.272;8.052;2022-08-24T17:37:27;31.30;50.00
40960;DHT22;27842;52.272;8.052;2022-08-24T17:39:53;31.20;50.00
40960;DHT22;27842;52.272;8.052;2022-08-24T17:42:19;31.20;50.40
40960;DHT22;27842;52.272;8.052;2022-08-24T17:44:45;31.10;50.40
40960;DHT22;27842;52.272;8.052;2022-08-24T17:47:11;31.10;50.50
40960;DHT22;27842;52.272;8.052;2022-08-24T17:49:37;31.00;50.70
40960;DHT22;27842;52.272;8.052;2022-08-24T17:52:03;31.00;50.20
40960;DHT22;27842;52.272;8.052;2022-08-24T17:54:29;30.90;48.90
40960;DHT22;27842;52.272;8.052;2022-08-24T17:56:54;30.90;51.00
40960;DHT22;27842;52.272;8.052;2022-08-24T17:59:30;30.90;51.00
40960;DHT22;27842;52.272;8.052;2022-08-24T18:01:58;30.90;51.00
40960;DHT22;27842;52.272;8.052;2022-08-24T18:04:24;30.80;50.20
40960;DHT22;27842;52.272;8.052;2022-08-24T18:06:52;30.80;50.90
40960;DHT22;27842;52.272;8.052;2022-08-24T18:09:20;30.80;51.10
40960;DHT22;27842;52.272;8.052;2022-08-24T18:11:46;30.70;51.10
40960;DHT22;27842;52.272;8.052;2022-08-24T18:14:12;30.70;51.00
40960;DHT22;27842;52.272;8.052;2022-08-24T18:16:38;30.70;51.30
40960;DHT22;27842;52.272;8.052;2022-08-24T18:19:03;30.60;50.80
40960;DHT22;27842;52.272;8.052;2022-08-24T18:21:29;30.70;51.40
40960;DHT22;27842;52.272;8.052;2022-08-24T18:23:55;30.60;51.50
40960;DHT22;27842;52.272;8.052;2022-08-24T18:26:24;30.60;51.50
40960;DHT22;27842;52.272;8.052;2022-08-24T18:28:50;30.60;51.50
40960;DHT22;27842;52.272;8.052;2022-08-24T18:31:16;30.50;51.40
40960;DHT22;27842;52.272;8.052;2022-08-24T18:33:41;30.50;51.20
40960;DHT22;27842;52.272;8.052;2022-08-24T18:36:07;30.50;51.10
40960;DHT22;27842;52.272;8.052;2022-08-24T18:38:32;30.50;50.80
40960;DHT22;27842;52.272;8.052;2022-08-24T18:40:59;30.50;50.70
40960;DHT22;27842;52.272;8.052;2022-08-24T18:43:25;30.40;50.40
40960;DHT22;27842;52.272;8.052;2022-08-24T18:45:50;30.40;50.30
40960;DHT22;27842;52.272;8.052;2022-08-24T18:48:16;30.40;50.30
40960;DHT22;27842;52.272;8.052;2022-08-24T18:50:42;30.30;50.40
40960;DHT22;27842;52.272;8.052;2022-08-24T18:53:07;30.30;50.50
40960;DHT22;27842;52.272;8.052;2022-08-24T18:55:33;30.30;50.60